Time;durP1;ratioP1;P1;durP2;ratioP2;P2;SDS_P1;SDS_P2;PMS_P1;PMS_P2;Temp;Humidity;BMP_temperature;BMP_pressure;BME280_temperature;BME280_humidity;BME280_pressure;Samples;Min_cycle;Max_cycle;Signal;HPM_P1;HPM_P2
2022/07/04 00:07:12;;;;;;;3.97;1.33;;;17.40;99.90;;;;;;6762740;87;20274;-78
2022/07/04 00:17:12;;;;;;;5.47;1.10;;;17.10;99.90;;;;;;6765627;88;20179;-78
2022/07/04 00:27:13;;;;;;;3.50;1.10;;;17.10;99.90;;;;;;6745536;88;20615;-80
2022/07/04 00:37:13;;;;;;;2.80;1.20;;;16.80;99.90;;;;;;6737850;88;20689;-78
2022/07/04 00:47:14;;;;;;;2.95;1.20;;;16.60;99.90;;;;;;6735709;88;20219;-77
2022/07/04 00:57:15;;;;;;;4.93;1.23;;;16.50;99.90;;;;;;6734956;88;20213;-78
2022/07/04 01:07:16;;;;;;;3.67;1.05;;;16.30;99.90;;;;;;6740690;88;20316;-80
2022/07/04 01:17:16;;;;;;;3.72;1.20;;;16.40;99.90;;;;;;6741695;88;20227;-79
2022/07/04 01:27:18;;;;;;;2.20;1.10;;;16.30;99.90;;;;;;6738360;88;20228;-81
2022/07/04 01:37:18;;;;;;;2.10;1.25;;;16.20;99.90;;;;;;6738695;88;20210;-79
2022/07/04 01:47:19;;;;;;;4.17;1.40;;;16.10;99.90;;;;;;6736325;88;20200;-79
2022/07/04 01:57:19;;;;;;;3.70;1.20;;;16.00;99.90;;;;;;6738573;88;20181;-78
2022/07/04 02:07:20;;;;;;;3.35;1.20;;;15.90;99.90;;;;;;6739984;88;20888;-78
2022/07/04 02:17:21;;;;;;;2.87;1.17;;;15.70;99.90;;;;;;6720109;88;20613;-77
2022/07/04 02:27:22;;;;;;;2.50;1.23;;;16.00;99.90;;;;;;6720360;88;20658;-79
2022/07/04 02:37:22;;;;;;;2.37;1.30;;;16.10;99.90;;;;;;6720256;88;20356;-78
2022/07/04 02:47:23;;;;;;;4.93;1.50;;;16.10;99.90;;;;;;6720837;88;20210;-78
2022/07/04 02:57:24;;;;;;;3.22;1.25;;;16.00;99.90;;;;;;6730658;88;20684;-80
2022/07/04 03:07:24;;;;;;;3.42;1.50;;;15.80;99.90;;;;;;6724621;88;20222;-78
2022/07/04 03:17:29;;;;;;;4.12;1.37;;;15.60;99.90;;;;;;6720987;88;20362;-80
2022/07/04 03:27:29;;;;;;;4.10;1.43;;;15.50;99.90;;;;;;6722434;88;20241;-78
2022/07/04 03:37:30;;;;;;;2.75;1.15;;;15.40;99.90;;;;;;6723784;88;20522;-78
2022/07/04 03:47:31;;;;;;;4.12;1.50;;;15.50;99.90;;;;;;6721017;88;20189;-79
2022/07/04 03:57:32;;;;;;;3.33;1.30;;;15.10;99.90;;;;;;6725127;88;20198;-78
2022/07/04 04:07:32;;;;;;;4.50;1.50;;;14.90;99.90;;;;;;6724442;88;20209;-78
2022/07/04 04:17:33;;;;;;;3.80;1.37;;;14.90;99.90;;;;;;6726787;88;20214;-79
2022/07/04 04:27:34;;;;;;;2.72;1.20;;;15.00;99.90;;;;;;6742134;88;20211;-79
2022/07/04 04:37:34;;;;;;;6.00;1.42;;;15.20;99.90;;;;;;6742259;88;20217;-79
2022/07/04 04:47:35;;;;;;;4.57;1.60;;;15.70;99.90;;;;;;6743585;88;20230;-80
2022/07/04 04:57:36;;;;;;;4.10;1.37;;;15.90;99.90;;;;;;6742182;88;20220;-79
2022/07/04 05:07:36;;;;;;;5.37;1.45;;;16.10;99.90;;;;;;6732045;88;20642;-79
2022/07/04 05:17:37;;;;;;;3.00;1.42;;;16.00;99.90;;;;;;6742327;88;20188;-79
2022/07/04 05:27:37;;;;;;;2.70;1.20;;;16.00;99.90;;;;;;6742354;88;20604;-79
2022/07/04 05:37:38;;;;;;;6.25;1.45;;;16.10;99.90;;;;;;6743808;88;20210;-80
2022/07/04 05:47:39;;;;;;;2.22;1.50;;;16.00;99.90;;;;;;6673823;77;20221;-79
2022/07/04 05:57:39;;;;;;;4.53;1.55;;;15.90;99.90;;;;;;6645820;88;20207;-76
2022/07/04 06:07:40;;;;;;;2.87;1.30;;;16.30;99.90;;;;;;6628146;88;20222;-76
2022/07/04 06:17:42;;;;;;;4.40;1.40;;;16.90;99.90;;;;;;6638285;88;20189;-77
2022/07/04 06:27:44;;;;;;;2.92;1.30;;;17.50;99.90;;;;;;6635142;88;20316;-77
2022/07/04 06:37:44;;;;;;;5.10;1.10;;;18.30;99.90;;;;;;6634786;88;20200;-78
2022/07/04 06:47:45;;;;;;;3.33;1.08;;;19.20;99.90;;;;;;6642667;88;20200;-78
2022/07/04 06:57:46;;;;;;;3.00;0.68;;;19.20;99.90;;;;;;6629705;88;20223;-78
2022/07/04 07:07:46;;;;;;;2.00;0.90;;;19.70;99.90;;;;;;6630016;89;20208;-77
2022/07/04 07:17:47;;;;;;;3.58;1.17;;;20.80;99.90;;;;;;6628060;89;20243;-78
2022/07/04 07:27:47;;;;;;;1.83;0.50;;;20.40;99.90;;;;;;6627766;89;20723;-77
2022/07/04 07:37:48;;;;;;;3.00;0.57;;;21.30;95.20;;;;;;6627872;89;20259;-78
2022/07/04 07:47:48;;;;;;;2.42;0.50;;;21.70;92.30;;;;;;6629494;89;20251;-76
2022/07/04 07:57:49;;;;;;;1.23;0.40;;;22.60;90.60;;;;;;6630654;88;20761;-77
2022/07/04 08:07:49;;;;;;;4.72;0.50;;;22.60;87.20;;;;;;6634036;89;20205;-77
2022/07/04 08:17:50;;;;;;;1.55;0.50;;;23.50;87.80;;;;;;6630398;89;20240;-77
2022/07/04 08:27:51;;;;;;;1.67;0.50;;;23.90;84.90;;;;;;6629808;89;20587;-77
2022/07/04 08:37:53;;;;;;;2.20;0.40;;;23.80;83.40;;;;;;6630409;89;20216;-79
2022/07/04 08:48:06;;;;;;;2.80;0.50;;;23.60;83.20;;;;;;6631279;88;20726;-78
2022/07/04 09:08:26;;;;;;;1.00;0.50;;;25.00;78.00;;;;;;6630174;89;20189;-78
2022/07/04 09:18:29;;;;;;;1.55;0.35;;;24.80;76.30;;;;;;6633303;89;20298;-79
2022/07/04 09:28:30;;;;;;;;;;;25.30;75.90;;;;;;6628680;89;20235;-76
2022/07/04 09:38:31;;;;;;;1.98;0.50;;;26.10;75.00;;;;;;6629500;89;20584;-78
2022/07/04 09:48:49;;;;;;;1.55;0.60;;;25.80;72.50;;;;;;6629650;88;20202;-78
2022/07/04 09:58:58;;;;;;;1.30;0.60;;;27.50;72.00;;;;;;6628347;89;20663;-78
2022/07/04 10:09:16;;;;;;;2.22;0.60;;;28.30;71.10;;;;;;6630046;88;20243;-78
2022/07/04 10:19:17;;;;;;;2.58;0.60;;;27.80;69.40;;;;;;6628333;89;20320;-78
2022/07/04 10:29:17;;;;;;;4.35;0.68;;;27.90;68.20;;;;;;6629369;89;20205;-78
2022/07/04 10:39:23;;;;;;;0.98;0.50;;;27.40;69.20;;;;;;6630346;89;20201;-77
2022/07/04 10:49:26;;;;;;;1.48;0.60;;;28.00;69.00;;;;;;6635755;88;20325;-78
2022/07/04 10:59:28;;;;;;;1.67;0.50;;;29.00;65.00;;;;;;6627811;89;20303;-78
2022/07/04 11:09:29;;;;;;;1.92;0.60;;;28.50;68.40;;;;;;6628262;89;20693;-78
2022/07/04 11:19:29;;;;;;;1.98;0.50;;;29.60;64.60;;;;;;6628899;89;20237;-78
2022/07/04 11:29:30;;;;;;;13.13;11.77;;;29.50;65.50;;;;;;6639360;89;20181;-78
2022/07/04 11:39:31;;;;;;;1.75;0.70;;;29.90;64.40;;;;;;6630602;88;20247;-78
2022/07/04 11:49:31;;;;;;;1.83;0.50;;;29.30;63.80;;;;;;6635506;88;20235;-78
2022/07/04 11:59:32;;;;;;;3.10;0.90;;;31.00;63.10;;;;;;6632647;89;20335;-79
2022/07/04 12:09:32;;;;;;;2.15;0.70;;;32.30;61.50;;;;;;6634309;89;20243;-79
2022/07/04 12:19:33;;;;;;;1.73;0.70;;;31.50;60.00;;;;;;6632508;88;20317;-78
2022/07/04 12:29:34;;;;;;;4.28;0.60;;;30.50;61.70;;;;;;6629008;89;20202;-76
2022/07/04 12:39:39;;;;;;;2.08;0.50;;;29.80;59.50;;;;;;6626427;89;20186;-77
2022/07/04 12:49:44;;;;;;;1.92;0.60;;;29.70;62.20;;;;;;6631245;88;20252;-77
2022/07/04 12:59:45;;;;;;;2.62;0.60;;;30.00;60.00;;;;;;6627094;89;20272;-77
2022/07/04 13:09:46;;;;;;;2.45;0.70;;;29.30;61.60;;;;;;6627464;89;20222;-77
2022/07/04 13:19:46;;;;;;;2.65;0.70;;;29.70;61.40;;;;;;6627162;89;20259;-77
2022/07/04 13:29:47;;;;;;;1.15;0.50;;;29.80;62.20;;;;;;6631142;89;20307;-77
2022/07/04 13:39:48;;;;;;;2.43;0.70;;;29.90;61.40;;;;;;6627360;89;20571;-77
2022/07/04 13:49:48;;;;;;;4.35;0.70;;;31.00;61.50;;;;;;6631289;88;20193;-77
2022/07/04 13:59:49;;;;;;;2.78;0.75;;;31.30;59.80;;;;;;6625136;89;20201;-77
2022/07/04 14:09:49;;;;;;;1.85;0.70;;;30.60;59.90;;;;;;6633278;89;20231;-77
2022/07/04 14:19:50;;;;;;;2.77;0.73;;;30.40;59.70;;;;;;6639787;88;20686;-77
2022/07/04 14:29:51;;;;;;;4.07;0.80;;;30.50;59.70;;;;;;6628778;89;20193;-77
2022/07/04 14:39:51;;;;;;;4.00;0.83;;;30.90;59.80;;;;;;6626509;89;20337;-77
2022/07/04 14:49:52;;;;;;;1.62;0.60;;;31.70;59.40;;;;;;6629688;88;20217;-77
2022/07/04 14:59:52;;;;;;;3.50;0.70;;;30.90;59.80;;;;;;6626181;89;20266;-76
2022/07/04 15:09:53;;;;;;;2.62;1.00;;;30.80;59.70;;;;;;6628976;89;20292;-78
2022/07/04 15:30:18;;;;;;;3.15;0.70;;;30.50;60.30;;;;;;6630583;89;20196;-77
2022/07/04 15:40:19;;;;;;;4.70;1.02;;;30.40;59.00;;;;;;6628247;89;20645;-77
2022/07/04 15:50:20;;;;;;;2.65;0.98;;;29.70;59.30;;;;;;6636085;88;20204;-81
2022/07/04 16:00:22;;;;;;;1.73;0.70;;;29.60;59.60;;;;;;6642189;88;20189;-78
2022/07/04 16:10:23;;;;;;;2.40;1.00;;;29.50;60.30;;;;;;6634479;88;20657;-77
2022/07/04 16:20:24;;;;;;;4.53;0.80;;;30.90;59.70;;;;;;6630120;88;20605;-77
2022/07/04 16:30:34;;;;;;;2.85;0.85;;;30.40;59.90;;;;;;6634768;89;20201;-77
2022/07/04 16:40:37;;;;;;;3.15;0.90;;;29.00;60.90;;;;;;6632328;89;20193;-77
2022/07/04 16:50:43;;;;;;;2.03;0.70;;;28.30;61.00;;;;;;6639597;88;20197;-76
2022/07/04 17:00:44;;;;;;;1.87;0.80;;;28.50;61.30;;;;;;6633268;88;20229;-76
2022/07/04 17:10:45;;;;;;;2.55;0.90;;;28.40;61.70;;;;;;6632399;88;20189;-76
2022/07/04 17:20:55;;;;;;;3.55;0.90;;;27.80;62.50;;;;;;6628300;88;20825;-77
2022/07/04 17:31:04;;;;;;;2.62;1.02;;;28.20;61.90;;;;;;6632702;88;20185;-78
2022/07/04 17:51:08;;;;;;;6.47;2.85;;;27.60;62.50;;;;;;6741260;88;20249;-78
2022/07/04 18:01:08;;;;;;;17.53;1.70;;;27.80;62.60;;;;;;6729040;88;20211;-79
2022/07/04 18:11:09;;;;;;;2.55;0.68;;;28.20;68.30;;;;;;6725816;88;20937;-77
2022/07/04 18:21:10;;;;;;;2.10;1.00;;;25.70;68.90;;;;;;6725435;88;20178;-77
2022/07/04 18:31:13;;;;;;;3.10;1.00;;;26.90;66.10;;;;;;6725546;88;20186;-79
2022/07/04 18:51:34;;;;;;;13.18;6.40;;;25.60;68.50;;;;;;6741415;88;20184;-77
2022/07/04 19:01:34;;;;;;;4.75;1.30;;;24.60;67.90;;;;;;6737106;88;20250;-78
2022/07/04 19:11:35;;;;;;;4.12;1.35;;;24.00;68.90;;;;;;6739000;88;20189;-78
2022/07/04 19:21:36;;;;;;;3.70;1.00;;;23.90;69.90;;;;;;6739563;88;20200;-78
2022/07/04 19:31:38;;;;;;;5.13;0.90;;;23.40;70.50;;;;;;6745493;88;20266;-81
2022/07/04 19:41:39;;;;;;;5.20;1.12;;;23.20;72.10;;;;;;6741435;88;21140;-79
2022/07/04 19:52:28;;;;;;;3.60;1.10;;;22.90;72.60;;;;;;6741962;88;20204;-80
2022/07/04 20:02:00;;;;;;;2.42;0.90;;;22.60;74.20;;;;;;6744590;88;20256;-81
2022/07/04 20:12:01;;;;;;;4.43;1.47;;;22.30;75.20;;;;;;6742299;88;20199;-81
2022/07/04 20:22:01;;;;;;;2.10;1.20;;;22.00;76.40;;;;;;6742132;88;20186;-81
2022/07/04 20:32:03;;;;;;;2.20;0.90;;;21.90;77.50;;;;;;6742375;88;20211;-80
2022/07/04 20:42:03;;;;;;;3.28;1.08;;;21.60;78.70;;;;;;6747167;88;20326;-80
2022/07/04 20:52:04;;;;;;;3.28;0.90;;;21.40;79.40;;;;;;6747589;88;20915;-80
2022/07/04 21:02:10;;;;;;;3.08;1.40;;;21.20;80.20;;;;;;6743026;88;20299;-80
2022/07/04 21:12:10;;;;;;;2.20;1.00;;;21.10;81.60;;;;;;6735299;88;20327;-80
2022/07/04 21:22:15;;;;;;;2.42;1.00;;;20.80;83.10;;;;;;6745271;88;20768;-80
2022/07/04 21:32:18;;;;;;;3.83;1.50;;;20.80;85.50;;;;;;6742782;88;20369;-80
2022/07/04 21:42:18;;;;;;;5.20;1.65;;;20.80;87.90;;;;;;6738161;88;20249;-80
2022/07/04 21:52:19;;;;;;;2.60;1.27;;;20.80;89.20;;;;;;6738060;88;20255;-79
2022/07/04 22:02:19;;;;;;;5.47;2.20;;;20.60;90.90;;;;;;6741135;88;20214;-79
2022/07/04 22:12:20;;;;;;;7.60;4.10;;;20.50;91.50;;;;;;6756334;88;20189;-78
2022/07/04 22:22:21;;;;;;;4.75;1.50;;;20.40;92.50;;;;;;6742246;88;20941;-79
2022/07/04 22:32:21;;;;;;;4.67;2.50;;;20.40;93.10;;;;;;6742053;88;20189;-80
2022/07/04 22:42:22;;;;;;;3.07;1.67;;;20.00;95.40;;;;;;6743582;88;20218;-80
2022/07/04 22:52:23;;;;;;;5.87;1.80;;;19.60;96.70;;;;;;6744049;88;20515;-80
2022/07/04 23:02:24;;;;;;;3.03;1.40;;;20.00;98.60;;;;;;6745224;88;20221;-79
2022/07/04 23:12:25;;;;;;;3.17;1.45;;;19.80;99.80;;;;;;6744877;88;20230;-81
2022/07/04 23:22:25;;;;;;;4.85;1.58;;;19.60;99.90;;;;;;6741295;88;20193;-80
2022/07/04 23:32:26;;;;;;;4.65;1.55;;;19.30;99.90;;;;;;6736815;88;20258;-79
2022/07/04 23:42:26;;;;;;;3.87;1.30;;;18.90;99.90;;;;;;6735046;76;20185;-77
2022/07/04 23:52:27;;;;;;;3.65;1.45;;;18.80;99.90;;;;;;6713638;88;20649;-78
